Time;durP1;ratioP1;P1;durP2;ratioP2;P2;SDS_P1;SDS_P2;PMS_P1;PMS_P2;Temp;Humidity;BMP_temperature;BMP_pressure;BME280_temperature;BME280_humidity;BME280_pressure;Samples;Min_cycle;Max_cycle;Signal;HPM_P1;HPM_P2
2022/12/15 00:39:11;;;;;;;2.42;1.70;;;15.90;42.90;;;;;;5084211;28;45180;-72
2022/12/15 00:41:39;;;;;;;2.10;1.70;;;15.90;42.90;;;;;;5087033;27;45220;-71
2022/12/15 00:44:06;;;;;;;1.90;1.80;;;15.90;42.80;;;;;;5086765;27;46700;-72
2022/12/15 01:22:09;;;;;;;1.83;1.70;;;15.60;43.20;;;;;;5087261;28;45231;-71
2022/12/15 01:24:36;;;;;;;2.40;1.95;;;15.60;43.20;;;;;;5089965;27;45388;-71
2022/12/15 01:27:03;;;;;;;2.00;1.90;;;15.50;43.80;;;;;;5089418;27;45434;-71
2022/12/15 01:29:30;;;;;;;1.80;1.70;;;15.50;43.30;;;;;;5089582;27;45298;-71
2022/12/15 01:31:56;;;;;;;2.20;1.80;;;15.40;43.30;;;;;;5089754;27;45300;-71
2022/12/15 01:34:23;;;;;;;2.35;2.15;;;15.40;43.40;;;;;;5089901;27;45261;-71
2022/12/15 01:36:50;;;;;;;1.95;1.77;;;15.40;43.40;;;;;;5089377;27;47270;-71
2022/12/15 01:39:18;;;;;;;2.13;1.92;;;15.40;43.80;;;;;;5089277;27;45169;-71
2022/12/15 01:41:44;;;;;;;1.90;1.70;;;15.40;43.50;;;;;;5089458;27;45236;-71
2022/12/15 01:44:19;;;;;;;1.88;1.77;;;15.30;43.50;;;;;;5089649;27;45294;-70
2022/12/15 01:46:46;;;;;;;2.20;2.00;;;15.30;43.50;;;;;;5089056;27;45354;-71
2022/12/15 01:49:15;;;;;;;1.98;1.77;;;15.30;43.50;;;;;;5089239;27;45402;-71
2022/12/15 01:51:44;;;;;;;1.83;1.60;;;15.30;43.30;;;;;;5089327;27;45200;-71
2022/12/15 01:54:12;;;;;;;2.20;1.70;;;15.40;43.30;;;;;;5088932;27;45319;-70
2022/12/15 01:56:42;;;;;;;1.80;1.70;;;15.40;43.20;;;;;;5088564;28;46360;-71
2022/12/15 01:59:10;;;;;;;2.00;1.80;;;15.50;43.10;;;;;;5088316;27;45346;-71
2022/12/15 02:01:37;;;;;;;2.25;2.05;;;15.60;43.70;;;;;;5089293;27;45290;-71
2022/12/15 02:04:04;;;;;;;1.73;1.60;;;15.60;42.90;;;;;;5089373;27;45168;-71
2022/12/15 02:06:31;;;;;;;2.75;1.65;;;15.70;42.90;;;;;;5088728;27;46412;-72
2022/12/15 02:08:58;;;;;;;2.10;1.92;;;15.80;42.80;;;;;;5088912;27;45164;-71
2022/12/15 02:11:47;;;;;;;2.47;2.28;;;15.80;42.70;;;;;;5088999;27;45367;-71
2022/12/15 02:14:17;;;;;;;2.35;2.15;;;15.90;42.70;;;;;;5088456;27;45388;-71
2022/12/15 02:16:52;;;;;;;2.22;2.03;;;15.90;42.70;;;;;;5088847;27;47585;-71
2022/12/15 02:19:42;;;;;;;2.05;1.95;;;15.90;42.70;;;;;;5088740;27;45168;-70
2022/12/15 02:22:17;;;;;;;2.08;1.88;;;15.90;42.70;;;;;;5088869;27;45232;-71
2022/12/15 02:25:05;;;;;;;2.13;2.03;;;15.90;42.70;;;;;;5088982;27;45401;-71
2022/12/15 02:27:53;;;;;;;1.98;1.88;;;15.90;42.70;;;;;;5088574;27;45266;-71
2022/12/15 02:30:41;;;;;;;1.95;1.85;;;15.80;42.70;;;;;;5088028;27;45294;-71
2022/12/15 02:33:11;;;;;;;2.33;1.90;;;15.80;42.60;;;;;;5088920;27;45313;-71
2022/12/15 02:35:53;;;;;;;2.25;1.92;;;15.80;43.00;;;;;;5088256;27;45138;-71
2022/12/15 02:38:29;;;;;;;3.70;2.30;;;15.80;42.70;;;;;;5088294;27;46392;-70
2022/12/15 02:40:58;;;;;;;1.92;1.70;;;15.80;42.80;;;;;;5088526;27;45207;-70
2022/12/15 02:43:25;;;;;;;2.28;2.10;;;15.70;42.80;;;;;;5088082;27;45392;-70
2022/12/15 02:45:55;;;;;;;2.40;2.10;;;15.70;42.80;;;;;;5088592;27;45351;-71
2022/12/15 02:48:27;;;;;;;2.40;2.20;;;15.70;42.80;;;;;;5088112;27;45217;-70
2022/12/15 02:51:12;;;;;;;2.15;1.95;;;15.70;43.50;;;;;;5088095;27;44652;-71
2022/12/15 02:53:53;;;;;;;2.15;1.95;;;15.60;43.50;;;;;;5087176;27;45572;-71
2022/12/15 02:56:24;;;;;;;1.92;1.80;;;15.60;43.00;;;;;;5087857;27;45290;-71
2022/12/15 02:58:55;;;;;;;2.30;2.10;;;15.50;43.00;;;;;;5087851;27;46740;-71
2022/12/15 03:01:27;;;;;;;2.03;1.80;;;15.50;43.10;;;;;;5088154;27;45354;-70
2022/12/15 03:03:55;;;;;;;2.40;2.15;;;15.50;43.10;;;;;;5088200;27;45298;-71
2022/12/15 03:06:21;;;;;;;2.08;1.88;;;15.40;43.10;;;;;;5088376;27;45299;-71
2022/12/15 03:08:49;;;;;;;2.05;1.90;;;15.40;43.20;;;;;;5087758;27;45325;-71
2022/12/15 03:11:15;;;;;;;2.20;2.00;;;15.40;43.20;;;;;;5087862;27;45188;-71
2022/12/15 03:13:42;;;;;;;2.25;2.05;;;15.30;43.20;;;;;;5088098;27;45180;-71
2022/12/15 03:16:09;;;;;;;2.45;2.10;;;15.30;43.20;;;;;;5088111;27;45476;-71
2022/12/15 03:18:38;;;;;;;2.45;2.25;;;15.30;43.30;;;;;;5087733;27;46585;-71
2022/12/15 03:21:05;;;;;;;1.88;1.70;;;15.30;43.90;;;;;;5087830;27;45183;-71
2022/12/15 03:23:32;;;;;;;2.65;2.15;;;15.30;43.30;;;;;;5087607;27;45347;-71
2022/12/15 03:25:59;;;;;;;2.22;2.03;;;15.30;43.20;;;;;;5087914;27;45264;-71
2022/12/15 03:28:26;;;;;;;2.05;1.85;;;15.40;43.20;;;;;;5087585;27;46392;-71
2022/12/15 03:30:53;;;;;;;2.33;2.13;;;15.40;43.10;;;;;;5087621;27;45312;-71
2022/12/15 03:33:20;;;;;;;2.17;1.80;;;15.50;43.00;;;;;;5087731;27;45259;-71
2022/12/15 03:35:48;;;;;;;2.30;2.05;;;15.60;42.90;;;;;;5087915;27;45196;-71
2022/12/15 03:38:15;;;;;;;2.10;2.00;;;15.70;43.50;;;;;;5087260;27;47306;-71
2022/12/15 03:40:42;;;;;;;2.28;2.05;;;15.80;42.70;;;;;;5087483;27;45264;-70
2022/12/15 03:43:09;;;;;;;2.33;2.13;;;15.90;42.60;;;;;;5087064;27;45349;-71
2022/12/15 03:45:36;;;;;;;2.13;1.95;;;15.90;42.50;;;;;;5087543;27;45225;-71
2022/12/15 03:48:02;;;;;;;2.25;2.05;;;15.90;42.50;;;;;;5087188;27;45217;-71
2022/12/15 03:50:29;;;;;;;1.88;1.75;;;16.00;42.40;;;;;;5087299;27;45193;-70
2022/12/15 03:52:58;;;;;;;1.92;1.83;;;16.00;42.40;;;;;;5087032;27;45351;-71
2022/12/15 03:55:27;;;;;;;2.30;2.10;;;16.00;42.40;;;;;;5087594;27;45411;-70
2022/12/15 03:57:54;;;;;;;2.20;2.00;;;16.00;42.40;;;;;;5087355;27;47295;-71
2022/12/15 04:00:21;;;;;;;2.00;1.90;;;16.00;42.40;;;;;;5087112;27;45302;-71
2022/12/15 04:02:48;;;;;;;2.10;2.00;;;16.00;42.40;;;;;;5087242;27;45295;-71
2022/12/15 04:05:16;;;;;;;2.30;2.10;;;16.00;43.00;;;;;;5087559;27;45245;-71
2022/12/15 04:07:42;;;;;;;2.00;1.90;;;15.90;42.40;;;;;;5087039;27;45191;-70
2022/12/15 04:10:11;;;;;;;2.25;2.05;;;15.90;42.50;;;;;;5087164;27;45210;-69
2022/12/15 04:12:38;;;;;;;2.78;2.30;;;15.90;42.50;;;;;;5087207;27;45386;-70
2022/12/15 04:15:06;;;;;;;2.97;2.45;;;15.80;42.50;;;;;;5087271;27;45193;-71
2022/12/15 04:17:33;;;;;;;2.53;2.33;;;15.80;42.50;;;;;;5086804;27;45528;-71
2022/12/15 04:20:08;;;;;;;2.38;2.17;;;15.80;42.50;;;;;;5086936;27;45664;-70
2022/12/15 04:22:35;;;;;;;2.40;2.20;;;15.80;42.60;;;;;;5087047;27;45220;-71
2022/12/15 05:33:36;;;;;;;2.58;2.17;;;15.90;42.10;;;;;;5086853;28;45230;-69
2022/12/15 05:36:03;;;;;;;2.78;2.35;;;15.90;42.20;;;;;;5089449;27;45429;-69
2022/12/15 05:38:30;;;;;;;2.67;2.25;;;15.90;42.20;;;;;;5089390;27;45301;-69
2022/12/15 05:40:57;;;;;;;2.50;2.30;;;15.90;42.20;;;;;;5089911;27;45188;-71
2022/12/15 05:43:24;;;;;;;3.22;2.47;;;15.90;42.20;;;;;;5089242;27;45520;-70
2022/12/15 05:45:51;;;;;;;3.05;2.75;;;15.90;42.20;;;;;;5089282;27;45370;-70
2022/12/15 05:48:18;;;;;;;2.47;2.28;;;15.80;42.20;;;;;;5089199;27;45322;-70
2022/12/15 05:50:46;;;;;;;2.83;2.63;;;15.80;42.20;;;;;;5089614;27;45273;-71
2022/12/15 05:53:13;;;;;;;2.60;2.40;;;15.80;42.30;;;;;;5088315;27;45276;-71
2022/12/15 05:55:40;;;;;;;2.67;2.22;;;15.80;42.30;;;;;;5089113;27;45208;-71
2022/12/15 05:58:07;;;;;;;2.92;2.63;;;15.70;42.40;;;;;;5089220;27;45340;-71
2022/12/15 06:00:34;;;;;;;2.53;2.33;;;15.70;42.40;;;;;;5089200;27;45310;-71
2022/12/15 06:03:01;;;;;;;2.60;2.40;;;15.70;42.50;;;;;;5088959;27;46426;-71
2022/12/15 06:05:28;;;;;;;2.50;2.30;;;15.60;42.50;;;;;;5088822;27;45237;-71
2022/12/15 06:07:56;;;;;;;2.70;2.45;;;15.60;42.50;;;;;;5089049;27;45278;-71
2022/12/15 06:10:23;;;;;;;2.63;2.42;;;15.60;42.60;;;;;;5089218;27;45415;-71
2022/12/15 06:12:50;;;;;;;2.65;2.33;;;15.50;42.60;;;;;;5088647;27;45466;-71
2022/12/15 06:15:17;;;;;;;2.97;2.58;;;15.50;42.60;;;;;;5089007;27;45221;-71
2022/12/15 06:17:44;;;;;;;2.90;2.38;;;15.50;42.70;;;;;;5089006;27;45186;-71
2022/12/15 06:20:11;;;;;;;3.42;3.13;;;15.50;42.70;;;;;;5088994;27;45395;-70
2022/12/15 06:22:38;;;;;;;3.00;2.63;;;15.40;42.70;;;;;;5088795;27;45298;-71
2022/12/15 06:25:07;;;;;;;2.78;2.42;;;15.40;42.80;;;;;;5088811;27;45413;-71
2022/12/15 06:27:36;;;;;;;3.17;2.67;;;15.40;42.80;;;;;;5088788;27;45187;-71
2022/12/15 06:30:03;;;;;;;4.63;2.95;;;15.30;42.80;;;;;;5088818;27;45316;-71
2022/12/15 06:32:29;;;;;;;3.45;2.75;;;15.30;42.90;;;;;;5088536;27;45511;-70
2022/12/15 06:34:56;;;;;;;3.50;2.92;;;15.30;43.00;;;;;;5088738;27;45129;-70
2022/12/15 06:37:23;;;;;;;3.70;2.90;;;15.30;42.90;;;;;;5088044;27;45196;-71
2022/12/15 06:39:50;;;;;;;2.63;2.42;;;15.30;42.90;;;;;;5088735;27;45458;-71
2022/12/15 06:42:18;;;;;;;3.70;2.80;;;15.30;43.40;;;;;;5088535;27;45532;-71
2022/12/15 06:44:45;;;;;;;3.55;2.92;;;15.40;42.70;;;;;;5088301;27;45347;-71
2022/12/15 06:47:12;;;;;;;3.20;2.25;;;15.40;43.20;;;;;;5088547;27;45249;-70
2022/12/15 06:49:39;;;;;;;3.63;2.90;;;15.50;42.60;;;;;;5088670;27;45203;-71
2022/12/15 06:52:06;;;;;;;3.00;2.70;;;15.60;42.50;;;;;;5088317;27;45312;-71
2022/12/15 06:54:33;;;;;;;2.60;2.40;;;15.70;42.40;;;;;;5088061;27;45248;-71
2022/12/15 06:56:59;;;;;;;3.35;2.70;;;15.80;42.20;;;;;;5088425;27;45316;-70
2022/12/15 06:59:27;;;;;;;3.53;2.67;;;15.80;42.10;;;;;;5087848;27;45256;-70
2022/12/15 07:01:54;;;;;;;4.43;2.80;;;15.90;42.00;;;;;;5088191;27;45301;-71
2022/12/15 07:04:23;;;;;;;3.30;3.00;;;15.90;41.90;;;;;;5088092;27;45316;-71
2022/12/15 07:06:51;;;;;;;3.75;2.90;;;15.90;41.90;;;;;;5088295;27;45311;-71
2022/12/15 07:09:17;;;;;;;3.05;2.75;;;16.00;41.90;;;;;;5088390;27;45118;-71
2022/12/15 07:11:48;;;;;;;3.25;2.95;;;16.00;41.90;;;;;;5087793;27;45237;-71
2022/12/15 07:14:14;;;;;;;3.85;3.10;;;16.00;42.00;;;;;;5087878;27;45375;-71
2022/12/15 07:16:44;;;;;;;3.75;3.15;;;15.90;41.90;;;;;;5088217;27;45243;-71
2022/12/15 07:19:12;;;;;;;4.40;2.85;;;15.90;42.60;;;;;;5088200;27;45371;-71
2022/12/15 07:21:39;;;;;;;3.88;2.90;;;15.90;42.00;;;;;;5087285;27;46683;-70
2022/12/15 07:24:07;;;;;;;3.20;2.90;;;15.90;42.60;;;;;;5087171;27;45194;-71
2022/12/15 07:26:34;;;;;;;3.58;2.83;;;15.90;42.00;;;;;;5087949;27;45118;-71
2022/12/15 07:29:01;;;;;;;3.28;2.83;;;15.80;42.00;;;;;;5088312;27;45275;-71
2022/12/15 07:31:28;;;;;;;4.78;3.00;;;15.80;42.10;;;;;;5087632;27;46619;-71
2022/12/15 07:33:57;;;;;;;3.65;3.20;;;15.80;42.10;;;;;;5087496;28;45314;-71
2022/12/15 07:36:25;;;;;;;4.00;3.30;;;15.70;42.10;;;;;;5087605;27;45200;-71
2022/12/15 07:38:52;;;;;;;3.72;3.25;;;15.70;42.10;;;;;;5088016;27;45325;-71
2022/12/15 07:41:19;;;;;;;3.22;2.92;;;15.70;42.20;;;;;;5087443;27;46758;-71
2022/12/15 07:43:46;;;;;;;3.47;2.83;;;15.60;42.20;;;;;;5087642;27;45376;-71
2022/12/15 07:46:13;;;;;;;3.45;3.08;;;15.60;42.20;;;;;;5087830;27;45232;-71
2022/12/15 07:48:40;;;;;;;3.72;3.05;;;15.60;42.30;;;;;;5087823;27;45273;-71
2022/12/15 07:51:09;;;;;;;3.40;3.05;;;15.50;42.20;;;;;;5087209;27;46410;-71
2022/12/15 07:53:36;;;;;;;4.00;3.20;;;15.50;42.30;;;;;;5087100;27;45321;-71
2022/12/15 07:56:04;;;;;;;4.25;3.30;;;15.50;42.40;;;;;;5087618;27;45201;-71
2022/12/15 07:58:31;;;;;;;3.97;3.50;;;15.40;42.40;;;;;;5087531;27;45331;-70
2022/12/15 08:00:59;;;;;;;4.95;3.60;;;15.40;42.40;;;;;;5087236;27;47341;-70
2022/12/15 08:03:26;;;;;;;4.03;3.28;;;15.40;42.50;;;;;;5087162;27;45357;-71
2022/12/15 08:05:53;;;;;;;5.30;3.67;;;15.30;42.50;;;;;;5087209;27;45222;-69
2022/12/15 08:08:21;;;;;;;4.18;3.40;;;15.30;42.50;;;;;;5086895;27;45192;-71
2022/12/15 08:10:48;;;;;;;4.20;3.50;;;15.30;42.60;;;;;;5086023;27;45302;-71
2022/12/15 08:13:15;;;;;;;4.78;3.83;;;15.20;42.60;;;;;;5087138;27;45375;-71
2022/12/15 08:15:42;;;;;;;4.03;3.33;;;15.30;42.60;;;;;;5087243;27;45227;-70
2022/12/15 08:18:09;;;;;;;3.83;3.40;;;15.30;43.10;;;;;;5087382;27;45456;-71
2022/12/15 08:20:36;;;;;;;5.00;3.80;;;15.30;42.40;;;;;;5086841;27;46394;-71
2022/12/15 08:23:03;;;;;;;4.57;3.70;;;15.40;42.40;;;;;;5086919;27;45243;-72
2022/12/15 08:25:31;;;;;;;3.78;3.30;;;15.50;42.30;;;;;;5087181;27;45295;-71
2022/12/15 08:27:59;;;;;;;4.03;3.42;;;15.50;42.20;;;;;;5087226;27;45146;-71
2022/12/15 08:30:26;;;;;;;3.45;3.15;;;15.50;42.10;;;;;;5086816;27;46393;-71
2022/12/15 08:32:53;;;;;;;3.90;3.30;;;15.60;42.10;;;;;;5086905;27;45330;-71
2022/12/15 08:35:20;;;;;;;4.38;3.58;;;15.70;41.90;;;;;;5087201;27;45248;-71
2022/12/15 08:37:46;;;;;;;4.10;3.35;;;15.80;41.80;;;;;;5087049;27;45462;-71
2022/12/15 08:40:13;;;;;;;4.63;3.60;;;15.80;41.70;;;;;;5086533;27;45260;-71
2022/12/15 08:42:42;;;;;;;3.90;3.50;;;15.90;41.70;;;;;;5086582;27;45263;-71
2022/12/15 08:45:09;;;;;;;4.47;3.70;;;15.90;41.70;;;;;;5087062;27;45279;-71
2022/12/15 08:47:37;;;;;;;4.30;3.42;;;15.90;41.70;;;;;;5087024;27;45482;-70
2022/12/15 08:50:04;;;;;;;4.20;3.80;;;15.90;41.70;;;;;;5085952;27;45422;-71
2022/12/15 08:52:31;;;;;;;4.35;3.67;;;15.90;41.70;;;;;;5085996;27;45232;-71
2022/12/15 08:54:58;;;;;;;6.45;4.50;;;15.90;41.70;;;;;;5086869;27;45292;-69
2022/12/15 08:57:24;;;;;;;4.35;3.63;;;15.90;41.80;;;;;;5086850;27;45304;-71
2022/12/15 08:59:53;;;;;;;4.18;3.65;;;15.90;41.70;;;;;;5086357;27;45274;-71
2022/12/15 09:02:20;;;;;;;6.07;4.20;;;15.80;41.70;;;;;;5086463;28;45312;-70
2022/12/15 09:04:47;;;;;;;4.75;3.92;;;15.80;41.70;;;;;;5086459;27;45174;-71
2022/12/15 09:07:13;;;;;;;4.65;4.03;;;15.80;41.80;;;;;;5086726;27;45431;-71
2022/12/15 09:09:41;;;;;;;4.80;4.20;;;15.80;41.80;;;;;;5086355;27;46334;-71
2022/12/15 09:12:10;;;;;;;5.43;4.03;;;15.70;41.80;;;;;;5086488;27;45166;-71
2022/12/15 09:14:37;;;;;;;4.63;4.00;;;15.70;41.80;;;;;;5086474;27;45298;-71
2022/12/15 09:17:05;;;;;;;4.13;3.67;;;15.70;41.90;;;;;;5086488;27;45395;-71
2022/12/15 09:19:33;;;;;;;4.57;3.75;;;15.60;41.90;;;;;;5086095;27;45595;-71
2022/12/15 09:22:01;;;;;;;4.18;3.78;;;15.60;42.00;;;;;;5087161;27;45160;-70
2022/12/15 09:24:28;;;;;;;5.63;4.07;;;15.60;42.00;;;;;;5089941;27;45248;-70
2022/12/15 09:26:56;;;;;;;4.85;4.20;;;15.50;42.10;;;;;;5089916;27;45374;-71
2022/12/15 09:29:22;;;;;;;5.22;4.45;;;15.50;42.10;;;;;;5089545;27;45544;-70
2022/12/15 09:31:49;;;;;;;5.90;4.57;;;15.50;42.10;;;;;;5089535;27;45250;-70
2022/12/15 09:34:17;;;;;;;5.93;4.47;;;15.40;42.10;;;;;;5089373;27;45176;-70
2022/12/15 09:36:44;;;;;;;5.25;3.92;;;15.40;42.10;;;;;;5089137;27;45266;-71
2022/12/15 09:39:11;;;;;;;5.50;4.47;;;15.40;42.20;;;;;;5089383;27;45647;-70
2022/12/15 09:41:39;;;;;;;5.60;4.35;;;15.40;42.30;;;;;;5089162;27;45272;-71
2022/12/15 09:44:07;;;;;;;4.97;3.90;;;15.30;42.30;;;;;;5089580;27;45257;-71
2022/12/15 09:46:42;;;;;;;5.00;4.03;;;15.30;42.40;;;;;;5089565;27;45550;-71
2022/12/15 09:49:12;;;;;;;6.30;3.90;;;15.30;42.50;;;;;;5089025;27;46409;-71
2022/12/15 09:51:43;;;;;;;5.00;3.75;;;15.30;42.40;;;;;;5089251;27;45176;-70
2022/12/15 09:54:10;;;;;;;5.80;4.13;;;15.30;43.10;;;;;;5088364;27;45345;-71
2022/12/15 09:56:40;;;;;;;5.82;3.88;;;15.30;42.40;;;;;;5088808;27;45471;-70
2022/12/15 09:59:14;;;;;;;5.00;4.10;;;15.40;42.40;;;;;;5089174;27;45281;-70
2022/12/15 10:01:45;;;;;;;5.88;4.30;;;15.40;42.20;;;;;;5088952;27;45220;-70
2022/12/15 10:04:14;;;;;;;7.10;4.60;;;15.50;42.10;;;;;;5089281;27;45319;-70
2022/12/15 10:06:44;;;;;;;5.68;4.03;;;15.60;42.10;;;;;;5089303;27;45119;-70
2022/12/15 10:09:15;;;;;;;5.68;4.05;;;15.70;42.00;;;;;;5089034;27;46501;-70
2022/12/15 10:11:46;;;;;;;6.13;4.22;;;15.80;41.80;;;;;;5088944;27;45188;-70
2022/12/15 10:14:19;;;;;;;5.13;4.45;;;15.80;41.70;;;;;;5089141;27;45282;-71
2022/12/15 10:16:52;;;;;;;5.53;4.32;;;15.90;41.70;;;;;;5089069;27;45375;-70
2022/12/15 10:19:21;;;;;;;7.20;4.75;;;15.90;41.60;;;;;;5088778;27;45247;-70
2022/12/15 10:21:51;;;;;;;8.23;4.30;;;15.90;41.60;;;;;;5088803;27;45205;-71
2022/12/15 10:24:19;;;;;;;4.82;3.97;;;15.90;42.20;;;;;;5088772;27;45382;-71
2022/12/15 10:26:49;;;;;;;5.47;4.40;;;15.90;41.60;;;;;;5089003;27;45457;-70
2022/12/15 10:29:39;;;;;;;5.45;4.32;;;15.90;41.60;;;;;;5088620;27;47299;-70
2022/12/15 10:32:15;;;;;;;5.20;4.35;;;15.90;41.60;;;;;;5085118;27;45287;-71
2022/12/15 10:34:42;;;;;;;5.55;4.10;;;15.90;41.70;;;;;;5087775;27;45378;-71
2022/12/15 10:37:12;;;;;;;5.03;3.97;;;15.90;41.70;;;;;;5089050;27;45168;-71
2022/12/15 10:39:40;;;;;;;5.75;4.43;;;15.90;41.70;;;;;;5088459;27;46393;-71
2022/12/15 10:42:14;;;;;;;5.05;4.55;;;15.80;41.70;;;;;;5088264;27;45422;-71
2022/12/15 10:44:41;;;;;;;6.28;4.45;;;15.80;41.70;;;;;;5088517;27;45319;-71
2022/12/15 10:47:15;;;;;;;5.80;4.18;;;15.80;41.80;;;;;;5088796;27;45313;-71
2022/12/15 10:49:42;;;;;;;6.15;3.92;;;15.80;41.90;;;;;;5088247;27;45396;-71
2022/12/15 10:52:23;;;;;;;6.47;4.82;;;15.70;41.90;;;;;;5087684;27;45251;-71
2022/12/15 10:54:51;;;;;;;4.15;3.75;;;15.70;41.90;;;;;;5087501;27;45307;-70
2022/12/15 10:57:20;;;;;;;5.78;4.50;;;15.60;41.90;;;;;;5088264;27;45409;-71
2022/12/15 10:59:47;;;;;;;6.13;4.55;;;15.60;42.00;;;;;;5088176;27;46648;-70
2022/12/15 11:02:31;;;;;;;5.68;4.55;;;15.60;42.10;;;;;;5088188;27;45217;-70
2022/12/15 11:04:59;;;;;;;5.55;4.30;;;15.50;42.10;;;;;;5088157;27;45302;-71
2022/12/15 11:07:31;;;;;;;6.47;4.25;;;15.50;42.20;;;;;;5088314;27;45442;-70
2022/12/15 11:09:59;;;;;;;6.10;3.92;;;15.50;42.20;;;;;;5087857;27;46410;-71
2022/12/15 11:15:42;;;;;;;5.95;4.30;;;15.40;42.30;;;;;;5085528;28;45280;-71
2022/12/15 11:18:22;;;;;;;6.80;4.45;;;15.40;42.40;;;;;;5085447;27;45244;-71
2022/12/15 11:20:52;;;;;;;5.05;4.20;;;15.30;42.40;;;;;;5086960;27;45317;-71
2022/12/15 11:23:23;;;;;;;6.25;4.18;;;15.30;42.40;;;;;;5087309;27;45186;-71
2022/12/15 11:25:53;;;;;;;4.63;4.10;;;15.30;42.40;;;;;;5087973;27;45271;-71
2022/12/15 11:28:21;;;;;;;6.25;4.63;;;15.30;42.50;;;;;;5088116;27;45447;-71
2022/12/15 11:30:50;;;;;;;4.57;3.85;;;15.30;42.50;;;;;;5087620;27;45627;-71
2022/12/15 11:33:17;;;;;;;6.57;4.43;;;15.30;42.40;;;;;;5087488;27;45383;-71
2022/12/15 11:35:52;;;;;;;6.20;4.30;;;15.30;42.40;;;;;;5087511;27;45217;-70
2022/12/15 11:38:23;;;;;;;4.30;3.70;;;15.40;42.30;;;;;;5087683;27;45548;-71
2022/12/15 11:40:50;;;;;;;5.57;3.65;;;15.50;42.20;;;;;;5087277;27;45306;-71
2022/12/15 11:43:46;;;;;;;5.45;4.13;;;15.60;42.20;;;;;;5087511;27;45458;-71
2022/12/15 11:46:30;;;;;;;5.60;4.20;;;15.70;42.00;;;;;;5087558;27;45330;-71
2022/12/15 11:49:35;;;;;;;5.47;4.35;;;15.80;41.90;;;;;;5087745;27;45428;-71
2022/12/15 11:52:06;;;;;;;5.22;4.55;;;15.80;41.70;;;;;;5066023;28;45299;-70
2022/12/15 11:54:36;;;;;;;5.90;4.50;;;15.90;42.20;;;;;;5086583;27;45218;-70
2022/12/15 11:57:16;;;;;;;5.60;4.43;;;15.90;41.60;;;;;;5087531;27;45290;-71
2022/12/15 11:59:59;;;;;;;5.78;4.65;;;15.90;41.60;;;;;;5087014;27;45204;-71
2022/12/15 12:02:46;;;;;;;6.43;5.13;;;15.90;41.60;;;;;;5086306;27;45198;-71
2022/12/15 12:05:25;;;;;;;5.68;4.32;;;15.90;41.70;;;;;;5087268;27;45199;-71
2022/12/15 12:07:54;;;;;;;6.05;4.93;;;15.90;41.70;;;;;;5087315;27;45340;-70
2022/12/15 12:10:29;;;;;;;7.13;4.50;;;15.90;41.70;;;;;;5087494;27;45239;-71
2022/12/15 12:13:00;;;;;;;5.63;4.65;;;15.90;41.70;;;;;;5086964;27;46807;-70
2022/12/15 12:15:29;;;;;;;6.82;5.30;;;15.80;41.70;;;;;;5086257;27;45252;-71
2022/12/15 12:17:59;;;;;;;6.50;4.35;;;15.80;41.70;;;;;;5086497;27;45295;-71
2022/12/15 12:20:27;;;;;;;5.82;4.65;;;15.80;41.80;;;;;;5087199;27;45274;-71
2022/12/15 12:22:57;;;;;;;6.88;4.63;;;15.80;41.80;;;;;;5086778;28;45216;-71
2022/12/15 12:25:25;;;;;;;6.28;4.68;;;15.70;41.90;;;;;;5086860;27;45395;-71
2022/12/15 12:27:54;;;;;;;6.07;4.43;;;15.70;42.30;;;;;;5087058;27;45372;-71
2022/12/15 12:30:22;;;;;;;5.70;4.53;;;15.70;42.00;;;;;;5087200;27;45284;-72
2022/12/15 12:32:53;;;;;;;7.40;5.30;;;15.60;42.10;;;;;;5086563;27;45410;-71
2022/12/15 12:35:23;;;;;;;5.88;4.95;;;15.60;42.10;;;;;;5086895;27;45225;-70
2022/12/15 12:37:51;;;;;;;6.43;4.72;;;15.60;42.10;;;;;;5086915;27;45350;-72
2022/12/15 12:40:21;;;;;;;7.28;4.88;;;15.50;42.10;;;;;;5087131;27;45310;-70
2022/12/15 12:42:53;;;;;;;6.05;5.20;;;15.50;42.10;;;;;;5086458;27;45211;-69
2022/12/15 12:45:20;;;;;;;5.18;4.68;;;15.40;42.20;;;;;;5086629;27;45206;-71
2022/12/15 12:47:49;;;;;;;8.02;5.13;;;15.40;42.20;;;;;;5086771;27;45205;-69
2022/12/15 12:50:18;;;;;;;7.25;5.15;;;15.40;42.30;;;;;;5086925;27;45257;-69
2022/12/15 12:52:48;;;;;;;6.85;5.45;;;15.40;42.40;;;;;;5086301;27;45486;-69
2022/12/15 12:55:25;;;;;;;7.53;5.68;;;15.30;42.30;;;;;;5086458;27;45315;-69
2022/12/15 12:57:53;;;;;;;6.38;4.75;;;15.30;42.40;;;;;;5089036;27;45229;-71
2022/12/15 13:00:21;;;;;;;8.30;5.53;;;15.30;43.10;;;;;;5090351;27;45396;-71
2022/12/15 13:03:17;;;;;;;7.38;5.25;;;15.30;42.40;;;;;;5089855;27;46419;-69
2022/12/15 13:05:45;;;;;;;6.97;5.20;;;15.30;42.40;;;;;;5090096;27;45264;-69
2022/12/15 13:08:48;;;;;;;7.43;4.80;;;15.30;42.30;;;;;;5090328;27;45383;-69
2022/12/15 13:11:58;;;;;;;6.05;4.43;;;15.40;42.40;;;;;;5090316;27;45554;-70
2022/12/15 13:14:47;;;;;;;5.20;4.20;;;15.40;42.20;;;;;;5089697;27;47372;-69
2022/12/15 13:17:24;;;;;;;5.95;4.40;;;15.50;42.10;;;;;;5084936;27;45443;-69
2022/12/15 13:20:16;;;;;;;6.82;4.70;;;15.60;42.00;;;;;;5089912;27;45244;-69
2022/12/15 13:22:43;;;;;;;7.25;4.47;;;15.70;41.90;;;;;;5089556;27;45463;-69
2022/12/15 13:25:36;;;;;;;14.82;6.35;;;15.80;41.70;;;;;;5090129;27;45333;-69
2022/12/15 13:28:25;;;;;;;8.32;5.50;;;15.80;42.20;;;;;;5089485;27;45177;-70
2022/12/15 13:31:14;;;;;;;8.30;6.32;;;15.90;42.00;;;;;;5089116;27;45363;-69
2022/12/15 13:33:44;;;;;;;9.45;6.53;;;15.90;41.90;;;;;;5089745;27;45463;-69
2022/12/15 13:36:11;;;;;;;9.13;6.10;;;15.80;41.80;;;;;;5089432;27;45291;-69
2022/12/15 13:38:52;;;;;;;9.80;6.72;;;15.80;41.90;;;;;;5088424;27;45397;-69
2022/12/15 13:41:22;;;;;;;9.00;6.80;;;15.80;42.00;;;;;;5088964;27;45190;-69
2022/12/15 13:43:49;;;;;;;10.32;7.22;;;15.70;42.10;;;;;;5088788;27;45299;-69
2022/12/15 13:46:20;;;;;;;8.80;7.13;;;15.70;42.10;;;;;;5089311;27;46553;-69
2022/12/15 13:48:48;;;;;;;11.38;7.45;;;15.70;42.20;;;;;;5089254;27;45314;-69
2022/12/15 13:51:31;;;;;;;9.70;6.78;;;15.60;42.30;;;;;;5089442;27;45196;-69
2022/12/15 13:54:00;;;;;;;11.25;7.40;;;15.60;42.60;;;;;;5091520;27;45295;-71
2022/12/15 13:56:49;;;;;;;11.73;7.60;;;15.60;42.70;;;;;;5088829;27;46491;-71
2022/12/15 13:59:24;;;;;;;11.10;7.40;;;15.70;42.70;;;;;;5089316;27;45408;-72
2022/12/15 14:01:53;;;;;;;15.15;7.10;;;15.70;42.80;;;;;;5089819;27;45258;-72
2022/12/15 14:04:20;;;;;;;14.23;7.60;;;15.70;42.80;;;;;;5089546;27;45199;-66
2022/12/15 14:06:48;;;;;;;10.07;7.30;;;15.80;43.00;;;;;;5089117;27;46666;-69
2022/12/15 14:09:15;;;;;;;14.93;9.02;;;15.80;43.20;;;;;;5087919;27;45603;-72
2022/12/15 14:11:43;;;;;;;12.43;9.25;;;15.90;43.40;;;;;;5089513;27;45303;-73
2022/12/15 14:14:16;;;;;;;17.10;10.57;;;15.90;43.30;;;;;;5089579;27;45319;-73
2022/12/15 14:16:42;;;;;;;20.65;14.98;;;15.90;43.00;;;;;;5093625;27;48066;-71
2022/12/15 14:19:13;;;;;;;34.10;22.45;;;15.90;43.00;;;;;;5089036;27;45255;-72
2022/12/15 14:21:40;;;;;;;28.83;20.30;;;15.90;43.00;;;;;;5089557;27;45292;-70
2022/12/15 14:24:19;;;;;;;26.20;19.92;;;16.00;43.20;;;;;;5089581;27;45405;-72
2022/12/15 14:26:45;;;;;;;22.55;15.48;;;16.00;43.20;;;;;;5088899;27;45231;-73
2022/12/15 14:29:12;;;;;;;24.25;15.00;;;16.00;43.10;;;;;;5088928;27;45188;-71
2022/12/15 14:31:39;;;;;;;22.55;14.68;;;16.00;42.90;;;;;;5089142;27;45158;-71
2022/12/15 14:34:07;;;;;;;26.55;18.17;;;15.90;42.60;;;;;;5088925;27;45310;-72
2022/12/15 14:36:35;;;;;;;37.15;28.40;;;15.90;43.00;;;;;;5088533;27;45764;-72
2022/12/15 14:39:03;;;;;;;43.60;32.67;;;15.80;42.90;;;;;;5088504;27;45154;-71
2022/12/15 14:41:31;;;;;;;36.10;24.13;;;15.80;42.80;;;;;;5088589;27;45134;-68
2022/12/15 14:43:59;;;;;;;33.95;24.55;;;15.70;42.70;;;;;;5088732;27;45672;-68
2022/12/15 14:46:26;;;;;;;30.33;22.67;;;15.70;42.90;;;;;;5088364;27;46689;-68
2022/12/15 14:48:54;;;;;;;29.10;21.75;;;15.60;42.80;;;;;;5087527;27;45260;-68
2022/12/15 14:51:21;;;;;;;25.25;19.65;;;15.60;42.80;;;;;;5088277;27;45355;-72
2022/12/15 14:53:51;;;;;;;25.95;19.58;;;15.70;42.90;;;;;;5088524;27;45279;-70
2022/12/15 14:56:26;;;;;;;29.05;19.10;;;15.70;42.90;;;;;;5088024;27;45475;-72
2022/12/15 14:58:56;;;;;;;30.73;21.98;;;15.80;42.70;;;;;;5088495;27;45142;-68
2022/12/15 15:01:24;;;;;;;26.73;20.48;;;15.80;43.30;;;;;;5088328;27;45251;-73
2022/12/15 15:04:00;;;;;;;26.25;19.63;;;15.90;42.90;;;;;;5088952;27;45183;-71
2022/12/15 15:06:31;;;;;;;28.90;19.25;;;16.00;42.80;;;;;;5088226;27;45320;-71
2022/12/15 15:09:04;;;;;;;26.67;18.85;;;16.00;42.60;;;;;;5088109;27;45310;-71
2022/12/15 15:11:32;;;;;;;25.15;19.38;;;16.10;42.50;;;;;;5088435;27;45338;-71
2022/12/15 15:14:00;;;;;;;28.10;19.42;;;16.20;42.40;;;;;;5088441;27;45462;-71
2022/12/15 15:16:27;;;;;;;24.08;17.65;;;16.20;42.10;;;;;;5087737;27;46451;-71
2022/12/15 15:18:54;;;;;;;25.17;18.08;;;16.30;42.10;;;;;;5087974;27;45248;-73
2022/12/15 15:21:22;;;;;;;21.52;17.10;;;16.30;42.00;;;;;;5083046;27;45240;-72
2022/12/15 15:24:00;;;;;;;21.15;17.02;;;16.30;42.00;;;;;;5088128;27;45332;-71
2022/12/15 15:26:27;;;;;;;21.90;15.95;;;16.30;41.90;;;;;;5087881;27;45324;-71